Time;durP1;ratioP1;P1;durP2;ratioP2;P2;SDS_P1;SDS_P2;PMS_P1;PMS_P2;Temp;Humidity;BMP_temperature;BMP_pressure;BME280_temperature;BME280_humidity;BME280_pressure;Samples;Min_cycle;Max_cycle;Signal;HPM_P1;HPM_P2
2022/08/14 00:01:32;;;;;;;20.45;16.80;;;;;;;18.79;79.23;100099.78;2198146;80;29852;-60
2022/08/14 00:04:35;;;;;;;18.48;16.67;;;;;;;18.82;79.47;100105.45;2197163;80;31065;-61
2022/08/14 00:07:37;;;;;;;20.90;17.62;;;;;;;18.83;79.60;100094.45;2198964;80;34274;-62
2022/08/14 00:10:39;;;;;;;20.60;18.45;;;;;;;18.86;79.74;100095.18;2199261;80;29886;-61
2022/08/14 00:13:41;;;;;;;19.35;17.50;;;;;;;18.88;79.83;100087.77;2196337;80;27617;-63
2022/08/14 00:16:43;;;;;;;18.50;16.60;;;;;;;18.90;79.99;100086.62;2200572;80;28684;-62
2022/08/14 00:19:44;;;;;;;20.65;18.20;;;;;;;18.91;80.06;100077.48;2199469;80;32187;-62
2022/08/14 00:22:46;;;;;;;22.22;17.17;;;;;;;18.94;80.24;100075.02;2167031;80;33038;-62
2022/08/14 00:25:52;;;;;;;19.48;17.32;;;;;;;18.95;80.28;100065.40;2158362;80;29434;-62
2022/08/14 00:28:53;;;;;;;18.48;16.60;;;;;;;18.98;80.37;100061.54;2158286;80;27785;-67
2022/08/14 00:31:55;;;;;;;19.45;17.42;;;;;;;18.99;80.37;100052.41;2160823;81;28573;-61
2022/08/14 00:35:00;;;;;;;21.60;17.52;;;;;;;19.02;80.45;100060.80;2159341;80;31470;-60
2022/08/14 00:38:00;;;;;;;19.80;17.80;;;;;;;19.03;80.49;100051.66;2160413;80;33480;-61
2022/08/14 00:41:05;;;;;;;19.67;17.73;;;;;;;19.03;80.59;100057.93;2158049;80;30492;-61
2022/08/14 00:44:07;;;;;;;18.82;16.95;;;;;;;19.05;80.64;100052.34;2159312;80;27949;-61
2022/08/14 00:47:09;;;;;;;19.40;17.32;;;;;;;19.06;80.62;100050.00;2158495;80;29613;-60
2022/08/14 00:50:16;;;;;;;17.75;16.05;;;;;;;19.04;80.75;100050.15;2139522;81;31565;-60
2022/08/14 00:53:18;;;;;;;19.48;17.27;;;;;;;19.05;80.76;100045.56;2195916;80;33192;-63
2022/08/14 00:56:20;;;;;;;20.55;17.52;;;;;;;19.04;80.73;100045.20;2195670;80;30616;-61
2022/08/14 00:59:24;;;;;;;19.50;17.35;;;;;;;19.04;80.85;100039.77;2196325;80;27704;-62
2022/08/14 01:02:26;;;;;;;21.00;17.42;;;;;;;19.03;80.89;100038.92;2194466;80;29082;-61
2022/08/14 01:05:28;;;;;;;19.37;17.30;;;;;;;19.03;80.97;100038.92;2198635;80;31017;-61
2022/08/14 01:08:31;;;;;;;20.15;18.07;;;;;;;19.04;81.03;100038.41;2199136;80;33559;-61
2022/08/14 01:11:33;;;;;;;18.82;17.02;;;;;;;19.05;81.08;100042.36;2196229;80;28953;-61
2022/08/14 01:14:35;;;;;;;20.55;18.35;;;;;;;19.06;81.11;100044.09;2196848;79;27749;-60
2022/08/14 01:21:05;;;;;;;20.12;17.12;;;;;;;19.04;81.12;100042.00;2187256;80;30854;-61
2022/08/14 01:24:07;;;;;;;18.77;16.73;;;;;;;19.03;81.21;100037.56;2140662;81;33369;-61
2022/08/14 01:27:17;;;;;;;19.27;17.35;;;;;;;19.03;81.21;100040.28;2158372;81;29831;-62
2022/08/14 01:30:21;;;;;;;19.50;17.35;;;;;;;19.05;81.26;100037.41;2157830;80;27701;-62
2022/08/14 01:33:30;;;;;;;20.20;17.98;;;;;;;19.07;81.29;100040.86;2160096;81;28667;-62
2022/08/14 01:36:36;;;;;;;19.85;17.80;;;;;;;19.07;81.32;100031.35;2159974;80;32140;-61
2022/08/14 01:39:39;;;;;;;19.30;16.90;;;;;;;19.08;81.36;100032.59;2185254;80;33050;-61
2022/08/14 01:42:45;;;;;;;19.65;17.75;;;;;;;19.10;81.40;100028.37;2202253;80;30148;-61
2022/08/14 01:45:50;;;;;;;20.23;18.23;;;;;;;19.11;81.45;100030.93;2201969;80;27660;-61
2022/08/14 01:48:52;;;;;;;23.60;18.48;;;;;;;19.12;81.50;100026.38;2196241;80;28698;-61
2022/08/14 01:51:55;;;;;;;23.27;19.82;;;;;;;19.12;81.55;100023.66;2177603;80;31539;-62
2022/08/14 01:54:57;;;;;;;21.77;19.45;;;;;;;19.15;81.60;100030.66;2160792;80;33980;-60
2022/08/14 01:57:59;;;;;;;21.40;17.87;;;;;;;19.17;81.65;100026.83;2157720;81;30426;-61
2022/08/14 02:01:01;;;;;;;22.37;20.00;;;;;;;19.19;81.69;100018.05;2158309;80;27651;-62
2022/08/14 02:04:05;;;;;;;22.65;19.37;;;;;;;19.22;81.76;100023.17;2159004;81;28873;-62
2022/08/14 02:07:08;;;;;;;21.07;19.05;;;;;;;19.25;81.80;100023.42;2158394;80;31776;-62
2022/08/14 02:10:12;;;;;;;22.35;19.92;;;;;;;19.27;81.79;100030.93;2159987;81;33371;-61
2022/08/14 02:13:17;;;;;;;20.90;18.70;;;;;;;19.27;81.71;100020.91;2159055;80;30203;-62
2022/08/14 02:16:24;;;;;;;;;;;;;;;19.30;81.72;100021.63;2162498;81;27727;-62
2022/08/14 02:19:28;;;;;;;20.57;18.48;;;;;;;19.31;81.74;100015.20;2163799;80;28677;-63
2022/08/14 02:22:30;;;;;;;27.20;18.73;;;;;;;19.27;81.68;100014.63;2158346;80;31056;-60
2022/08/14 02:25:32;;;;;;;21.27;18.15;;;;;;;19.23;81.58;100015.39;2161611;80;34195;-59
2022/08/14 02:28:34;;;;;;;22.42;19.27;;;;;;;19.19;81.59;100013.98;2160093;80;30133;-62
2022/08/14 02:31:40;;;;;;;20.08;18.00;;;;;;;19.15;81.54;100016.60;2158351;80;27691;-62
2022/08/14 02:34:43;;;;;;;19.90;17.77;;;;;;;19.12;81.57;100011.44;2159039;80;28650;-61
2022/08/14 02:37:47;;;;;;;22.67;19.45;;;;;;;19.07;81.57;100005.08;2158050;81;31951;-62
2022/08/14 02:40:48;;;;;;;22.17;19.87;;;;;;;19.03;81.71;100003.63;2164904;80;32987;-62
2022/08/14 02:43:51;;;;;;;25.95;21.87;;;;;;;18.99;81.72;100000.82;2158828;80;30575;-61
2022/08/14 02:46:56;;;;;;;25.68;20.52;;;;;;;18.94;81.98;99997.17;2158214;80;27788;-62
2022/08/14 02:49:57;;;;;;;25.55;20.55;;;;;;;18.91;82.03;99985.20;2168999;80;29707;-62
2022/08/14 02:52:59;;;;;;;22.77;19.82;;;;;;;18.88;81.97;99990.05;2196782;80;32159;-62
2022/08/14 02:56:03;;;;;;;22.15;19.52;;;;;;;18.85;81.87;99987.61;2198985;80;34408;-61
2022/08/14 02:59:08;;;;;;;22.62;20.23;;;;;;;18.82;81.96;99992.82;2191013;80;30387;-61
2022/08/14 03:02:11;;;;;;;22.70;20.30;;;;;;;18.77;81.88;99989.17;2196657;79;27756;-62
2022/08/14 03:05:12;;;;;;;22.32;19.92;;;;;;;18.73;81.85;99986.36;2197720;80;29558;-62
2022/08/14 03:08:16;;;;;;;22.42;20.12;;;;;;;18.68;81.81;99984.06;2199338;80;32138;-61
2022/08/14 03:11:18;;;;;;;15.43;13.83;;;;;;;18.62;81.72;99989.14;2197164;80;32967;-61
2022/08/14 03:14:23;;;;;;;25.40;19.45;;;;;;;18.55;81.66;99979.85;2198131;80;29367;-62
2022/08/14 03:17:23;;;;;;;27.22;18.62;;;;;;;18.48;81.65;99979.03;2196743;80;28230;-63
2022/08/14 03:20:29;;;;;;;21.45;19.35;;;;;;;18.44;81.61;99983.52;2177845;80;28739;-62
2022/08/14 03:23:33;;;;;;;23.65;19.82;;;;;;;18.37;81.59;99979.13;2161761;80;31066;-62
2022/08/14 03:26:35;;;;;;;27.02;20.55;;;;;;;18.32;81.68;99977.30;2161702;81;34148;-62
2022/08/14 03:29:38;;;;;;;22.67;20.02;;;;;;;18.27;81.63;99978.23;2159847;81;30467;-63
2022/08/14 03:32:40;;;;;;;23.27;19.42;;;;;;;18.20;81.62;99976.03;2162268;80;27690;-63
2022/08/14 03:35:42;;;;;;;21.05;18.90;;;;;;;18.15;81.66;99971.50;2158216;81;29943;-61
2022/08/14 03:38:48;;;;;;;20.77;18.77;;;;;;;18.10;81.63;99971.06;2158589;80;31101;-61
2022/08/14 03:41:55;;;;;;;22.75;19.25;;;;;;;18.06;81.62;99962.83;2159801;81;33242;-61
2022/08/14 03:44:57;;;;;;;24.30;19.77;;;;;;;18.02;81.73;99964.08;2158429;81;29148;-64
2022/08/14 03:48:00;;;;;;;20.45;18.27;;;;;;;17.98;81.79;99960.78;2159714;80;27705;-61
2022/08/14 03:51:01;;;;;;;19.57;17.42;;;;;;;17.94;81.83;99967.42;2185523;80;29464;-61
2022/08/14 03:54:07;;;;;;;20.05;17.98;;;;;;;17.91;81.89;99964.97;2200328;80;31446;-62
2022/08/14 03:57:09;;;;;;;21.20;18.42;;;;;;;17.89;82.00;99965.11;2198071;80;34139;-61
2022/08/14 04:00:12;;;;;;;21.30;19.17;;;;;;;17.88;82.12;99963.87;2200578;80;29323;-61
2022/08/14 04:03:14;;;;;;;22.02;19.73;;;;;;;17.90;82.33;99963.24;2177064;80;27849;-61
2022/08/14 04:06:19;;;;;;;22.73;20.32;;;;;;;17.91;82.46;99964.48;2197386;80;29121;-61
2022/08/14 04:09:20;;;;;;;22.60;20.20;;;;;;;17.95;82.59;99958.30;2199214;80;31042;-61
2022/08/14 04:12:22;;;;;;;22.35;20.05;;;;;;;17.99;82.72;99959.80;2197151;80;33002;-61
2022/08/14 04:15:23;;;;;;;22.70;20.17;;;;;;;18.04;82.87;99950.74;2197619;80;29566;-61
2022/08/14 04:18:25;;;;;;;23.47;20.20;;;;;;;18.11;82.99;99951.58;2200626;80;28259;-60
2022/08/14 04:21:28;;;;;;;28.75;20.37;;;;;;;18.15;83.06;99954.39;2162805;80;29869;-60
2022/08/14 04:24:33;;;;;;;24.18;20.25;;;;;;;18.21;83.10;99961.97;2159196;81;32229;-61
2022/08/14 04:27:34;;;;;;;23.05;20.75;;;;;;;18.25;83.21;99958.00;2160312;80;32997;-62
2022/08/14 04:30:41;;;;;;;23.05;20.72;;;;;;;18.32;83.29;99967.81;2159146;81;29724;-61
2022/08/14 04:33:40;;;;;;;23.87;21.47;;;;;;;18.37;83.38;99958.78;2159035;80;27704;-61
2022/08/14 04:43:38;;;;;;;24.40;21.87;;;;;;;18.54;83.54;99962.70;2160708;80;34212;-61
2022/08/14 04:48:11;;;;;;;25.17;21.35;;;;;;;18.64;83.71;99960.03;2158550;80;30192;-61
2022/08/14 04:49:45;;;;;;;24.77;21.12;;;;;;;18.73;83.79;99966.48;2168668;80;27658;-61
2022/08/14 04:52:48;;;;;;;23.90;21.27;;;;;;;18.79;83.82;99955.94;2122642;83;28936;-61
2022/08/14 04:55:50;;;;;;;25.12;22.40;;;;;;;18.90;83.93;99956.84;2123704;83;31077;-60
2022/08/14 04:58:56;;;;;;;24.77;22.27;;;;;;;19.00;83.95;99952.31;2125095;83;33026;-61
2022/08/14 05:02:00;;;;;;;22.60;20.32;;;;;;;19.10;83.81;99952.34;2122369;83;29537;-61
2022/08/14 05:05:02;;;;;;;24.17;21.57;;;;;;;19.21;83.66;99946.77;2124164;83;27725;-62
2022/08/14 05:08:08;;;;;;;22.58;20.17;;;;;;;19.32;83.60;99945.78;2127266;83;28663;-61
2022/08/14 05:11:10;;;;;;;22.02;19.82;;;;;;;19.42;83.63;99945.80;2127157;83;31061;-63
2022/08/14 05:14:13;;;;;;;24.02;20.35;;;;;;;19.50;83.40;99937.80;2122692;83;32970;-61
2022/08/14 05:17:14;;;;;;;21.33;19.25;;;;;;;19.58;83.20;99942.00;2122327;83;30449;-61
2022/08/14 05:20:18;;;;;;;21.00;18.87;;;;;;;19.66;83.19;99944.00;2161079;80;27712;-60
2022/08/14 05:23:23;;;;;;;18.82;16.93;;;;;;;19.73;83.03;99934.77;2175772;80;29321;-61
2022/08/14 05:26:25;;;;;;;20.05;18.05;;;;;;;19.81;83.02;99934.92;2160870;81;31226;-61
2022/08/14 05:29:27;;;;;;;20.97;18.77;;;;;;;19.89;83.00;99939.14;2159844;81;33652;-61
2022/08/14 05:32:28;;;;;;;19.87;17.92;;;;;;;19.97;82.57;99940.29;2158992;81;30737;-61
2022/08/14 05:35:31;;;;;;;20.52;18.20;;;;;;;20.02;82.46;99933.40;2161544;80;27664;-62
2022/08/14 05:38:41;;;;;;;20.88;17.90;;;;;;;20.09;82.27;99934.19;2159835;81;29504;-63
2022/08/14 05:41:43;;;;;;;20.60;18.50;;;;;;;20.16;82.15;99931.21;2160848;80;31085;-62
2022/08/14 05:44:44;;;;;;;21.27;19.02;;;;;;;20.22;81.83;99925.19;2159402;80;34138;-62
2022/08/14 05:47:46;;;;;;;20.88;18.52;;;;;;;20.26;81.85;99922.53;2157201;80;29840;-62
2022/08/14 05:50:47;;;;;;;20.88;18.85;;;;;;;20.32;81.68;99935.52;2189172;79;28411;-61
2022/08/14 05:53:49;;;;;;;22.55;19.77;;;;;;;20.34;81.46;99928.08;2197272;80;29706;-62
2022/08/14 05:56:51;;;;;;;20.32;18.23;;;;;;;20.40;81.50;99932.06;2199346;80;32370;-61
2022/08/14 05:59:52;;;;;;;24.40;18.80;;;;;;;20.48;81.43;99929.95;2198903;80;33389;-62
2022/08/14 06:02:55;;;;;;;21.75;19.30;;;;;;;20.59;81.56;99927.54;2196231;80;29255;-61
2022/08/14 06:05:56;;;;;;;21.20;19.02;;;;;;;20.66;81.42;99925.95;2201590;80;27587;-62
2022/08/14 06:08:57;;;;;;;23.22;19.80;;;;;;;20.73;81.20;99924.31;2199581;80;28670;-61
2022/08/14 06:11:59;;;;;;;22.40;19.92;;;;;;;20.79;80.83;99922.39;2200792;80;31393;-61
2022/08/14 06:15:00;;;;;;;21.12;19.12;;;;;;;20.87;80.71;99920.27;2196789;80;33367;-62
2022/08/14 06:18:02;;;;;;;20.70;18.57;;;;;;;20.89;80.43;99911.44;2196331;80;29561;-62
2022/08/14 06:21:04;;;;;;;21.77;19.15;;;;;;;20.91;80.26;99911.28;2167000;80;27666;-62
2022/08/14 06:24:07;;;;;;;22.15;19.75;;;;;;;20.91;80.08;99908.55;2161221;81;28649;-62
2022/08/14 06:27:10;;;;;;;21.33;19.12;;;;;;;20.92;80.04;99900.73;2159814;80;31042;-61
2022/08/14 06:30:22;;;;;;;21.87;19.67;;;;;;;20.94;79.82;99899.56;2164302;80;34002;-62
2022/08/14 06:33:24;;;;;;;22.05;17.90;;;;;;;20.97;79.81;99902.99;2154450;81;30183;-61
2022/08/14 06:36:25;;;;;;;20.27;18.20;;;;;;;21.01;79.71;99901.68;2161607;80;27706;-60
2022/08/14 06:39:27;;;;;;;21.50;19.10;;;;;;;21.07;79.82;99900.56;2163435;81;28747;-61
2022/08/14 06:42:29;;;;;;;20.85;18.52;;;;;;;21.13;79.26;99902.33;2160770;81;31397;-61
2022/08/14 06:45:33;;;;;;;21.12;19.05;;;;;;;21.16;79.41;99897.94;2140599;80;33006;-61
2022/08/14 06:48:35;;;;;;;21.12;18.82;;;;;;;21.24;79.55;99896.63;2165228;80;29398;-62
2022/08/14 06:51:37;;;;;;;19.52;17.48;;;;;;;21.37;79.51;99893.53;2157300;80;27646;-61
2022/08/14 06:54:39;;;;;;;20.50;18.42;;;;;;;21.51;79.41;99896.21;2158186;80;29203;-61
2022/08/14 06:57:46;;;;;;;22.90;18.60;;;;;;;21.59;79.05;99898.98;2159081;80;31006;-61
2022/08/14 07:07:16;;;;;;;18.32;16.52;;;;;;;21.92;78.66;99890.23;2052345;84;27660;-61
2022/08/14 07:10:19;;;;;;;18.37;16.65;;;;;;;22.17;78.67;99896.70;2051860;85;28695;-61
2022/08/14 07:13:21;;;;;;;18.00;16.27;;;;;;;22.38;77.78;99889.47;2052254;85;31924;-62
2022/08/14 07:16:22;;;;;;;19.20;17.23;;;;;;;22.49;77.37;99895.19;2051383;84;33340;-61
2022/08/14 07:19:24;;;;;;;19.35;16.57;;;;;;;22.52;76.81;99890.73;2050243;85;30694;-62
2022/08/14 07:22:26;;;;;;;18.55;16.65;;;;;;;22.59;76.45;99898.62;2051481;85;27706;-62
2022/08/14 07:25:27;;;;;;;17.30;15.75;;;;;;;22.58;76.19;99895.55;2050633;86;29393;-62
2022/08/14 07:28:33;;;;;;;18.62;15.63;;;;;;;22.65;76.09;99898.47;2052059;86;31189;-61
2022/08/14 07:31:35;;;;;;;17.30;15.38;;;;;;;22.74;75.74;99900.73;2052436;86;33158;-62
2022/08/14 07:34:37;;;;;;;16.30;14.73;;;;;;;22.86;76.07;99892.56;2052608;86;29377;-61
2022/08/14 07:37:38;;;;;;;17.62;15.53;;;;;;;23.09;76.00;99885.61;2055303;86;27709;-62
2022/08/14 07:40:39;;;;;;;16.55;14.90;;;;;;;23.31;75.84;99882.78;2093330;81;29917;-61
2022/08/14 07:43:43;;;;;;;17.17;14.50;;;;;;;23.46;74.94;99878.84;2164636;82;31633;-63
2022/08/14 07:46:44;;;;;;;14.87;13.45;;;;;;;23.56;74.58;99872.70;2159188;81;32974;-64
2022/08/14 07:50:01;;;;;;;21.55;14.20;;;;;;;23.59;73.96;99870.13;2176379;80;30609;-63
2022/08/14 07:53:02;;;;;;;16.00;14.25;;;;;;;23.61;73.77;99870.30;2171311;80;28195;-62
2022/08/14 07:56:04;;;;;;;15.25;12.88;;;;;;;23.61;73.75;99874.39;2197231;80;28591;-62
2022/08/14 07:59:05;;;;;;;13.62;12.33;;;;;;;23.72;73.83;99872.35;2200669;80;31549;-63
2022/08/14 08:02:10;;;;;;;15.13;12.68;;;;;;;23.82;72.99;99871.15;2195684;79;33344;-63
2022/08/14 08:05:13;;;;;;;15.65;12.95;;;;;;;23.99;72.96;99871.15;2198917;79;29946;-63
2022/08/14 08:08:16;;;;;;;12.47;11.15;;;;;;;24.34;73.38;99866.75;2201483;80;27773;-62
2022/08/14 08:11:18;;;;;;;14.07;11.43;;;;;;;24.86;72.34;99866.19;2195933;80;29693;-63
2022/08/14 08:14:20;;;;;;;14.33;11.93;;;;;;;25.28;70.14;99870.87;2201430;80;31083;-62
2022/08/14 08:17:23;;;;;;;15.15;11.45;;;;;;;25.43;69.61;99858.59;2198047;79;33330;-63
2022/08/14 08:20:27;;;;;;;11.73;10.63;;;;;;;25.84;69.56;99860.11;2170083;80;30185;-63
2022/08/14 08:23:33;;;;;;;18.17;12.25;;;;;;;26.00;68.48;99849.98;2159453;81;27632;-62
2022/08/14 08:26:34;;;;;;;14.78;9.90;;;;;;;26.05;68.54;99858.02;2156990;81;28571;-63
2022/08/14 08:29:36;;;;;;;13.15;10.48;;;;;;;26.04;66.97;99859.05;2159469;80;31033;-62
2022/08/14 08:32:41;;;;;;;11.63;10.05;;;;;;;26.06;67.47;99857.48;2160292;81;33752;-62
2022/08/14 08:35:43;;;;;;;10.28;9.28;;;;;;;26.19;67.13;99848.63;2164281;80;28691;-62
2022/08/14 08:38:48;;;;;;;10.50;9.25;;;;;;;26.58;64.75;99847.42;2111984;82;27852;-63
2022/08/14 08:41:50;;;;;;;10.72;9.63;;;;;;;26.74;65.84;99838.12;2087406;83;28795;-61
2022/08/14 08:44:55;;;;;;;13.80;10.45;;;;;;;27.01;64.28;99840.34;2114195;81;32286;-63
2022/08/14 08:47:58;;;;;;;10.58;9.48;;;;;;;26.95;63.37;99837.31;2100518;83;33059;-62
2022/08/14 08:51:02;;;;;;;11.00;9.90;;;;;;;26.94;63.93;99832.86;2135313;80;29777;-64
2022/08/14 08:54:08;;;;;;;14.28;10.48;;;;;;;26.94;63.73;99831.48;2159379;81;28427;-63
2022/08/14 08:57:12;;;;;;;11.08;9.70;;;;;;;26.75;63.10;99819.20;2140991;80;29969;-62
2022/08/14 09:00:17;;;;;;;14.40;12.15;;;;;;;26.78;64.11;99820.20;2149260;81;30957;-63
2022/08/14 09:03:24;;;;;;;13.83;12.43;;;;;;;26.81;63.44;99818.98;2129758;80;33873;-62
2022/08/14 09:06:25;;;;;;;15.48;12.43;;;;;;;26.71;63.41;99822.55;2135302;81;29382;-63
2022/08/14 09:09:30;;;;;;;15.10;13.65;;;;;;;26.61;63.18;99819.57;2124598;82;27635;-62
2022/08/14 09:12:33;;;;;;;14.50;13.03;;;;;;;26.47;63.20;99813.09;2160146;80;28678;-62
2022/08/14 09:15:40;;;;;;;14.43;13.07;;;;;;;26.37;63.45;99819.38;2141265;82;31941;-63
2022/08/14 09:18:42;;;;;;;12.10;10.68;;;;;;;26.36;63.73;99813.05;2132202;81;32997;-63
2022/08/14 09:21:45;;;;;;;13.93;10.28;;;;;;;26.37;62.96;99812.02;2080904;82;29362;-62
2022/08/14 09:24:48;;;;;;;10.70;9.70;;;;;;;26.34;63.11;99811.52;2113681;83;28204;-64
2022/08/14 09:27:50;;;;;;;12.88;9.93;;;;;;;26.39;62.32;99809.06;2101693;83;29307;-65
2022/08/14 09:30:55;;;;;;;16.35;11.05;;;;;;;26.26;62.68;99811.11;2113300;83;31435;-64
2022/08/14 09:34:43;;;;;;;12.20;11.00;;;;;;;26.34;62.56;99812.89;2119589;82;32966;-63
2022/08/14 09:38:13;;;;;;;11.35;10.25;;;;;;;26.39;62.51;99803.56;2107837;83;29405;-64
2022/08/14 09:41:58;;;;;;;13.13;11.10;;;;;;;26.48;62.12;99801.56;2106096;81;27842;-63
2022/08/14 09:45:21;;;;;;;12.60;10.40;;;;;;;26.39;62.02;99795.33;2118548;83;28714;-63
2022/08/14 09:48:25;;;;;;;15.40;11.03;;;;;;;26.18;61.51;99787.89;2118007;82;31912;-63
2022/08/14 09:51:29;;;;;;;12.13;10.88;;;;;;;25.99;61.93;99792.88;2153067;81;32965;-63
2022/08/14 09:54:43;;;;;;;12.93;11.63;;;;;;;25.71;61.99;99797.66;2139651;80;30283;-61
2022/08/14 09:57:45;;;;;;;12.47;11.33;;;;;;;25.37;62.92;99789.40;2132250;82;27721;-63
2022/08/14 10:00:50;;;;;;;15.63;14.03;;;;;;;25.16;64.21;99784.09;2150108;81;28716;-66
2022/08/14 10:03:55;;;;;;;15.40;13.05;;;;;;;24.99;64.47;99783.89;2151999;82;31027;-62
2022/08/14 10:06:59;;;;;;;14.58;13.05;;;;;;;24.71;64.76;99788.55;2156311;80;33025;-62
2022/08/14 10:10:03;;;;;;;15.23;13.28;;;;;;;24.39;65.86;99784.95;2128762;82;29755;-64
2022/08/14 10:13:07;;;;;;;18.80;14.37;;;;;;;24.07;66.26;99780.80;2197950;80;27751;-64
2022/08/14 10:16:09;;;;;;;24.30;13.50;;;;;;;23.89;67.19;99783.75;2196973;80;28631;-66
2022/08/14 10:19:15;;;;;;;20.17;15.93;;;;;;;23.67;70.12;99806.71;2177374;80;47328;-68
2022/08/14 10:22:29;;;;;;;32.17;16.42;;;;;;;22.95;78.93;99799.19;2159496;80;33073;-68
2022/08/14 10:25:39;;;;;;;65.45;16.02;;;;;;;22.58;80.73;99808.71;2157439;81;29737;-67
2022/08/14 10:28:48;;;;;;;24.52;16.37;;;;;;;21.92;84.50;99807.90;2161847;80;28228;-70
2022/08/14 10:31:58;;;;;;;21.50;17.25;;;;;;;21.72;87.10;99809.14;2159995;80;28677;-68
2022/08/14 10:35:06;;;;;;;21.73;17.65;;;;;;;21.61;87.19;99807.53;2160220;80;31035;-68
2022/08/14 10:38:07;;;;;;;24.45;16.67;;;;;;;;;;2161614;80;33743;-68
2022/08/14 10:41:15;;;;;;;19.35;16.50;;;;;;;21.69;89.11;99797.53;2158766;81;29813;-67
2022/08/14 10:44:20;;;;;;;18.42;16.52;;;;;;;21.77;89.73;99792.64;2162167;80;27713;-68
2022/08/14 10:47:21;;;;;;;21.25;16.35;;;;;;;21.95;90.72;99785.76;2141178;80;28800;-67
2022/08/14 10:50:37;;;;;;;18.57;15.20;;;;;;;22.13;90.71;99791.11;2161297;80;32394;-67
2022/08/14 10:53:39;;;;;;;17.10;14.45;;;;;;;22.22;90.34;99788.43;2158208;80;33082;-65
2022/08/14 10:56:41;;;;;;;15.60;14.00;;;;;;;22.29;90.63;99784.88;2161011;80;29504;-65
2022/08/14 10:59:54;;;;;;;15.15;13.58;;;;;;;22.21;89.61;99784.83;2157735;80;27640;-65
2022/08/14 11:03:01;;;;;;;16.17;14.18;;;;;;;22.14;89.92;99779.19;2158648;80;28685;-66
2022/08/14 11:06:18;;;;;;;16.70;14.95;;;;;;;22.03;89.54;99784.94;2162763;80;32275;-65
2022/08/14 11:09:21;;;;;;;17.77;14.85;;;;;;;22.01;90.23;99781.52;2161146;80;32453;-65
2022/08/14 11:12:25;;;;;;;20.50;15.13;;;;;;;21.93;89.97;99784.19;2140517;80;31302;-65
2022/08/14 11:15:31;;;;;;;17.92;15.90;;;;;;;21.83;89.86;99793.89;2158487;80;27860;-65
2022/08/14 11:18:33;;;;;;;20.57;15.88;;;;;;;21.63;89.35;99793.23;2166442;79;29160;-65
2022/08/14 11:21:38;;;;;;;32.20;16.95;;;;;;;21.38;89.07;99797.98;2197475;79;32313;-67
2022/08/14 11:24:42;;;;;;;30.23;17.40;;;;;;;21.13;91.59;99801.02;2197802;80;33888;-67
2022/08/14 11:27:46;;;;;;;28.27;19.50;;;;;;;20.91;93.03;99795.55;2197942;80;29735;-69
2022/08/14 11:30:50;;;;;;;20.25;18.07;;;;;;;20.84;93.75;99795.84;2196282;80;27744;-70
2022/08/14 11:33:56;;;;;;;18.07;16.17;;;;;;;20.87;93.87;99793.66;2199026;79;28156;-69
2022/08/14 11:36:57;;;;;;;22.60;18.67;;;;;;;20.89;93.80;99790.77;2195539;80;31238;-69
2022/08/14 11:40:00;;;;;;;21.60;18.87;;;;;;;20.92;94.39;99786.38;2198201;79;33378;-69
2022/08/14 11:43:05;;;;;;;18.82;17.05;;;;;;;21.09;95.24;99781.94;2196124;80;30237;-68
2022/08/14 11:46:09;;;;;;;14.00;12.47;;;;;;;21.24;95.57;99784.94;2192877;79;27636;-67
2022/08/14 11:49:10;;;;;;;16.20;14.70;;;;;;;21.37;95.26;99781.80;2163175;80;29468;-67
2022/08/14 11:52:16;;;;;;;13.78;12.47;;;;;;;21.47;95.53;99780.34;2158033;80;31030;-68
2022/08/14 11:55:18;;;;;;;11.95;10.85;;;;;;;21.58;95.69;99777.34;2162215;80;31920;-67
2022/08/14 11:58:24;;;;;;;12.88;11.65;;;;;;;21.60;94.86;99767.63;2159448;81;29334;-68
2022/08/14 12:01:30;;;;;;;11.63;9.68;;;;;;;21.63;95.16;99761.89;2140007;80;27674;-68
2022/08/14 12:04:31;;;;;;;12.03;10.70;;;;;;;21.59;94.46;99761.33;2158687;80;29452;-68
2022/08/14 12:07:33;;;;;;;11.80;9.60;;;;;;;21.66;95.35;99760.20;2140035;80;31230;-68
2022/08/14 12:10:38;;;;;;;11.35;9.48;;;;;;;21.65;94.64;99752.55;2123235;82;33437;-68
2022/08/14 12:13:43;;;;;;;12.25;11.05;;;;;;;21.73;95.20;99753.59;2095217;81;29401;-68
2022/08/14 12:16:45;;;;;;;12.82;11.63;;;;;;;21.81;95.27;99749.56;2121392;82;27694;-67
2022/08/14 12:19:52;;;;;;;16.20;14.50;;;;;;;21.98;95.98;99743.16;2154580;80;29574;-69
2022/08/14 12:22:55;;;;;;;15.83;14.38;;;;;;;22.16;96.29;99742.20;2141376;80;30810;-68
2022/08/14 12:26:09;;;;;;;13.95;12.70;;;;;;;22.32;95.57;99737.28;2128646;80;34279;-68
2022/08/14 12:29:15;;;;;;;15.43;13.88;;;;;;;22.26;93.31;99727.90;2141737;80;29436;-68
2022/08/14 12:32:18;;;;;;;16.75;14.70;;;;;;;22.23;93.84;99721.92;2114956;80;28135;-66
2022/08/14 12:35:28;;;;;;;19.70;17.48;;;;;;;22.38;95.01;99720.26;2148730;80;29671;-68
2022/08/14 12:38:41;;;;;;;19.27;17.37;;;;;;;22.72;96.47;99719.31;2158719;80;27859;-66
2022/08/14 12:41:55;;;;;;;16.87;15.30;;;;;;;22.82;94.62;99716.91;2152926;80;33020;-67
2022/08/14 12:44:58;;;;;;;13.58;12.28;;;;;;;23.06;94.73;99718.28;2122503;82;31112;-68
2022/08/14 12:48:04;;;;;;;11.38;10.18;;;;;;;22.87;91.12;99719.47;2128488;80;27950;-69
2022/08/14 12:51:12;;;;;;;132.55;16.37;;;;;;;22.57;90.06;99724.57;2111620;80;28780;-69
2022/08/14 12:54:18;;;;;;;28.75;15.32;;;;;;;22.12;91.83;99724.45;2114344;81;31768;-70
2022/08/14 12:57:22;;;;;;;25.48;16.37;;;;;;;21.75;99.89;99719.72;2123788;82;33699;-68
2022/08/14 13:00:24;;;;;;;20.03;16.30;;;;;;;21.45;99.88;99730.59;2118603;81;29665;-68
2022/08/14 13:03:28;;;;;;;29.10;16.55;;;;;;;21.09;99.68;99735.12;2123492;82;27846;-66
2022/08/14 13:06:30;;;;;;;57.77;16.77;;;;;;;20.86;98.72;99737.98;2122486;82;28696;-66
2022/08/14 13:09:34;;;;;;;28.87;17.82;;;;;;;20.63;98.86;99729.75;2118440;82;31280;-67
2022/08/14 13:12:38;;;;;;;24.63;17.10;;;;;;;20.56;100.00;99733.25;2122027;82;33210;-67
2022/08/14 13:15:43;;;;;;;24.37;18.70;;;;;;;20.52;100.00;99730.52;2120160;82;29865;-67
2022/08/14 13:18:49;;;;;;;26.48;19.52;;;;;;;20.49;100.00;99727.09;2134582;82;28712;-67
2022/08/14 13:21:54;;;;;;;23.90;20.27;;;;;;;20.58;100.00;99709.47;2147719;80;28724;-67
2022/08/14 13:24:55;;;;;;;26.15;20.75;;;;;;;20.69;100.00;99701.57;2121559;82;31155;-67
2022/08/14 13:27:58;;;;;;;23.83;20.80;;;;;;;20.78;100.00;99696.08;2117583;82;34303;-67
2022/08/14 13:31:03;;;;;;;25.15;22.30;;;;;;;20.78;100.00;99689.27;2107635;82;30144;-67
2022/08/14 13:34:05;;;;;;;25.30;20.37;;;;;;;20.82;100.00;99683.52;2114090;81;27808;-67
2022/08/14 13:37:08;;;;;;;26.30;21.90;;;;;;;20.92;100.00;99677.45;2104897;81;29114;-66
2022/08/14 13:40:11;;;;;;;28.02;22.22;;;;;;;20.99;100.00;99681.27;2117839;82;30912;-66
2022/08/14 13:43:13;;;;;;;27.37;23.18;;;;;;;21.19;100.00;99678.30;2121589;82;33002;-66
2022/08/14 13:46:14;;;;;;;27.87;23.45;;;;;;;21.41;100.00;99681.02;2129916;83;29499;-66
2022/08/14 13:49:17;;;;;;;25.05;21.17;;;;;;;21.56;100.00;99688.05;2105004;83;28487;-67
2022/08/14 13:52:21;;;;;;;25.57;22.87;;;;;;;21.55;100.00;99691.80;2125025;80;29941;-66
2022/08/14 13:55:27;;;;;;;26.37;22.48;;;;;;;21.64;100.00;99684.55;2142717;81;31107;-67
2022/08/14 13:58:31;;;;;;;28.73;25.40;;;;;;;21.73;100.00;99680.85;2154278;81;33185;-67
2022/08/14 14:01:34;;;;;;;26.57;23.60;;;;;;;22.28;100.00;99669.92;2132872;82;30462;-68
2022/08/14 14:04:41;;;;;;;27.25;23.95;;;;;;;22.28;100.00;99669.92;2154357;82;27656;-68
2022/08/14 14:07:50;;;;;;;26.20;23.50;;;;;;;22.46;100.00;99666.22;2164056;80;28686;-69
2022/08/14 14:10:52;;;;;;;22.87;20.35;;;;;;;22.59;100.00;99661.10;2157850;82;31950;-68
2022/08/14 14:14:02;;;;;;;22.20;19.95;;;;;;;22.61;100.00;99659.06;2163451;81;33383;-68
2022/08/14 14:17:03;;;;;;;21.37;19.17;;;;;;;22.54;100.00;99657.19;2144542;80;29364;-69
2022/08/14 14:20:10;;;;;;;21.70;19.50;;;;;;;22.20;97.89;99647.23;2132507;81;27557;-68
2022/08/14 14:23:13;;;;;;;21.60;19.30;;;;;;;22.10;99.59;99651.47;2103690;82;29796;-68